Jijona, Spain
Current Conditions -  °F | °C
As of 12:00 PM on Monday 20 Oct 2014 (Local Time) from LEAL Reporting Station
Clear Clear  
Wind Chill: 77°   Ceiling: Unl
Heat Index: 79°   Visibility: 6mi
Dew Point: 61°   Wind: 2mph
Humidity: 57%   Direction: NA
Pressure: 30.21"   Gusts: NA
Location:  38.54°N, 0.5°W
Report Text: LEAL 201000Z VRB02KT CAVOK 25/16 Q1023 NOSIG
Loading
Personal Weather Stations






























Interactive Weather Map
Tropical Storm Tracking
New forecast layout! Learn more

10-Day Weather Forecast

Advertisements
Track Severe Weather on mobile